sensor_id;sensor_type;location;lat;lon;timestamp;P1;durP1;ratioP1;P2;durP2;ratioP2
11777;SDS011;5946;51.770;8.548;2023-11-19T00:00:10;1.93;;;1.20;;
11777;SDS011;5946;51.770;8.548;2023-11-19T00:02:39;3.27;;;1.57;;
11777;SDS011;5946;51.770;8.548;2023-11-19T00:05:06;1.90;;;1.60;;
11777;SDS011;5946;51.770;8.548;2023-11-19T00:07:36;2.50;;;1.33;;
11777;SDS011;5946;51.770;8.548;2023-11-19T00:10:06;3.43;;;1.60;;
11777;SDS011;5946;51.770;8.548;2023-11-19T00:12:34;4.93;;;1.63;;
11777;SDS011;5946;51.770;8.548;2023-11-19T00:15:00;1.40;;;1.30;;
11777;SDS011;5946;51.770;8.548;2023-11-19T00:17:26;1.73;;;1.43;;
11777;SDS011;5946;51.770;8.548;2023-11-19T00:19:52;2.33;;;1.30;;
11777;SDS011;5946;51.770;8.548;2023-11-19T00:22:18;1.40;;;1.30;;
11777;SDS011;5946;51.770;8.548;2023-11-19T00:24:46;3.03;;;1.60;;
11777;SDS011;5946;51.770;8.548;2023-11-19T00:27:12;2.93;;;1.23;;
11777;SDS011;5946;51.770;8.548;2023-11-19T00:29:38;1.30;;;1.20;;
11777;SDS011;5946;51.770;8.548;2023-11-19T00:32:05;1.50;;;1.40;;
11777;SDS011;5946;51.770;8.548;2023-11-19T00:34:32;2.60;;;1.23;;
11777;SDS011;5946;51.770;8.548;2023-11-19T00:36:58;1.20;;;1.00;;
11777;SDS011;5946;51.770;8.548;2023-11-19T00:39:24;1.57;;;1.10;;
11777;SDS011;5946;51.770;8.548;2023-11-19T00:41:50;2.80;;;1.30;;
11777;SDS011;5946;51.770;8.548;2023-11-19T00:44:17;1.10;;;1.10;;
11777;SDS011;5946;51.770;8.548;2023-11-19T00:46:43;1.20;;;1.10;;
11777;SDS011;5946;51.770;8.548;2023-11-19T00:49:09;2.70;;;1.30;;
11777;SDS011;5946;51.770;8.548;2023-11-19T00:51:36;1.30;;;1.20;;
11777;SDS011;5946;51.770;8.548;2023-11-19T00:54:02;2.20;;;1.30;;
11777;SDS011;5946;51.770;8.548;2023-11-19T00:56:29;1.40;;;1.30;;
11777;SDS011;5946;51.770;8.548;2023-11-19T00:58:55;1.47;;;1.37;;
11777;SDS011;5946;51.770;8.548;2023-11-19T01:01:21;3.40;;;1.93;;
11777;SDS011;5946;51.770;8.548;2023-11-19T01:03:47;1.70;;;1.50;;
11777;SDS011;5946;51.770;8.548;2023-11-19T01:06:13;2.57;;;1.80;;
11777;SDS011;5946;51.770;8.548;2023-11-19T01:08:42;2.77;;;1.40;;
11777;SDS011;5946;51.770;8.548;2023-11-19T01:11:18;1.67;;;1.50;;
11777;SDS011;5946;51.770;8.548;2023-11-19T01:13:45;1.70;;;1.60;;
11777;SDS011;5946;51.770;8.548;2023-11-19T01:16:11;3.20;;;1.50;;
11777;SDS011;5946;51.770;8.548;2023-11-19T01:18:38;1.93;;;1.33;;
11777;SDS011;5946;51.770;8.548;2023-11-19T01:21:04;1.50;;;1.30;;
11777;SDS011;5946;51.770;8.548;2023-11-19T01:23:30;1.30;;;1.30;;
11777;SDS011;5946;51.770;8.548;2023-11-19T01:25:57;1.30;;;1.10;;
11777;SDS011;5946;51.770;8.548;2023-11-19T01:28:23;1.43;;;1.10;;
11777;SDS011;5946;51.770;8.548;2023-11-19T01:30:52;3.00;;;1.57;;
11777;SDS011;5946;51.770;8.548;2023-11-19T01:33:18;2.00;;;1.17;;
11777;SDS011;5946;51.770;8.548;2023-11-19T01:35:46;1.03;;;0.90;;
11777;SDS011;5946;51.770;8.548;2023-11-19T01:38:12;1.30;;;1.10;;
11777;SDS011;5946;51.770;8.548;2023-11-19T01:40:38;1.30;;;1.20;;
11777;SDS011;5946;51.770;8.548;2023-11-19T01:43:04;1.33;;;1.23;;
11777;SDS011;5946;51.770;8.548;2023-11-19T01:45:30;1.40;;;1.30;;
11777;SDS011;5946;51.770;8.548;2023-11-19T01:47:57;1.60;;;1.50;;
11777;SDS011;5946;51.770;8.548;2023-11-19T01:50:24;3.60;;;1.50;;
11777;SDS011;5946;51.770;8.548;2023-11-19T01:52:52;2.80;;;1.40;;
11777;SDS011;5946;51.770;8.548;2023-11-19T01:55:18;1.57;;;1.47;;
11777;SDS011;5946;51.770;8.548;2023-11-19T01:57:45;1.80;;;1.40;;
11777;SDS011;5946;51.770;8.548;2023-11-19T02:00:11;1.83;;;1.60;;
11777;SDS011;5946;51.770;8.548;2023-11-19T02:02:39;1.87;;;1.70;;
11777;SDS011;5946;51.770;8.548;2023-11-19T02:05:05;1.70;;;1.60;;
11777;SDS011;5946;51.770;8.548;2023-11-19T02:07:31;1.97;;;1.87;;
11777;SDS011;5946;51.770;8.548;2023-11-19T02:09:57;4.67;;;2.20;;
11777;SDS011;5946;51.770;8.548;2023-11-19T02:12:25;2.37;;;2.17;;
11777;SDS011;5946;51.770;8.548;2023-11-19T02:14:53;5.20;;;2.20;;
11777;SDS011;5946;51.770;8.548;2023-11-19T02:17:29;4.00;;;2.70;;
11777;SDS011;5946;51.770;8.548;2023-11-19T02:19:59;4.37;;;3.07;;
11777;SDS011;5946;51.770;8.548;2023-11-19T02:22:25;5.10;;;2.73;;
11777;SDS011;5946;51.770;8.548;2023-11-19T02:24:51;3.37;;;3.00;;
11777;SDS011;5946;51.770;8.548;2023-11-19T02:28:04;3.43;;;3.10;;
11777;SDS011;5946;51.770;8.548;2023-11-19T02:30:11;3.43;;;3.13;;
11777;SDS011;5946;51.770;8.548;2023-11-19T02:32:41;3.63;;;2.70;;
11777;SDS011;5946;51.770;8.548;2023-11-19T02:35:07;3.37;;;3.03;;
11777;SDS011;5946;51.770;8.548;2023-11-19T02:37:37;4.30;;;3.33;;
11777;SDS011;5946;51.770;8.548;2023-11-19T02:40:04;5.90;;;3.77;;
11777;SDS011;5946;51.770;8.548;2023-11-19T02:42:33;4.57;;;4.00;;
11777;SDS011;5946;51.770;8.548;2023-11-19T02:44:59;4.67;;;3.73;;
11777;SDS011;5946;51.770;8.548;2023-11-19T02:47:25;4.53;;;4.13;;
11777;SDS011;5946;51.770;8.548;2023-11-19T02:49:52;5.00;;;4.60;;
11777;SDS011;5946;51.770;8.548;2023-11-19T02:52:18;6.13;;;4.70;;
11777;SDS011;5946;51.770;8.548;2023-11-19T02:54:44;8.17;;;5.23;;
11777;SDS011;5946;51.770;8.548;2023-11-19T02:57:10;6.87;;;5.53;;
11777;SDS011;5946;51.770;8.548;2023-11-19T02:59:38;6.90;;;5.73;;
11777;SDS011;5946;51.770;8.548;2023-11-19T03:02:06;7.67;;;5.53;;
11777;SDS011;5946;51.770;8.548;2023-11-19T03:04:36;7.57;;;6.00;;
11777;SDS011;5946;51.770;8.548;2023-11-19T03:07:04;6.53;;;5.87;;
11777;SDS011;5946;51.770;8.548;2023-11-19T03:09:32;9.57;;;6.13;;
11777;SDS011;5946;51.770;8.548;2023-11-19T03:11:58;8.30;;;5.47;;
11777;SDS011;5946;51.770;8.548;2023-11-19T03:14:24;7.60;;;6.00;;
11777;SDS011;5946;51.770;8.548;2023-11-19T03:16:51;7.10;;;6.40;;
11777;SDS011;5946;51.770;8.548;2023-11-19T03:19:17;6.90;;;6.17;;
11777;SDS011;5946;51.770;8.548;2023-11-19T03:21:43;10.23;;;6.73;;
11777;SDS011;5946;51.770;8.548;2023-11-19T03:24:09;7.67;;;6.97;;
11777;SDS011;5946;51.770;8.548;2023-11-19T03:26:35;8.00;;;6.80;;
11777;SDS011;5946;51.770;8.548;2023-11-19T03:29:02;8.90;;;7.13;;
11777;SDS011;5946;51.770;8.548;2023-11-19T03:31:28;9.67;;;7.43;;
11777;SDS011;5946;51.770;8.548;2023-11-19T03:33:54;7.13;;;6.43;;
11777;SDS011;5946;51.770;8.548;2023-11-19T03:36:20;9.63;;;6.90;;
11777;SDS011;5946;51.770;8.548;2023-11-19T03:38:46;7.00;;;6.40;;
11777;SDS011;5946;51.770;8.548;2023-11-19T03:41:12;6.57;;;5.97;;
11777;SDS011;5946;51.770;8.548;2023-11-19T03:43:39;8.93;;;5.93;;
11777;SDS011;5946;51.770;8.548;2023-11-19T03:46:05;6.93;;;5.87;;
11777;SDS011;5946;51.770;8.548;2023-11-19T03:48:40;8.17;;;6.43;;
11777;SDS011;5946;51.770;8.548;2023-11-19T03:51:06;9.57;;;6.53;;
11777;SDS011;5946;51.770;8.548;2023-11-19T03:53:32;10.00;;;6.37;;
11777;SDS011;5946;51.770;8.548;2023-11-19T03:55:59;6.97;;;5.97;;
11777;SDS011;5946;51.770;8.548;2023-11-19T03:58:25;9.13;;;6.43;;
11777;SDS011;5946;51.770;8.548;2023-11-19T04:00:50;7.50;;;6.47;;
11777;SDS011;5946;51.770;8.548;2023-11-19T04:03:17;7.50;;;6.60;;
11777;SDS011;5946;51.770;8.548;2023-11-19T04:05:44;9.37;;;6.57;;
11777;SDS011;5946;51.770;8.548;2023-11-19T04:08:10;11.73;;;6.40;;
11777;SDS011;5946;51.770;8.548;2023-11-19T04:10:36;12.57;;;6.83;;
11777;SDS011;5946;51.770;8.548;2023-11-19T04:13:02;10.40;;;7.03;;
11777;SDS011;5946;51.770;8.548;2023-11-19T04:15:28;10.00;;;5.93;;
11777;SDS011;5946;51.770;8.548;2023-11-19T04:17:54;13.10;;;6.80;;
11777;SDS011;5946;51.770;8.548;2023-11-19T04:20:20;18.23;;;6.90;;
11777;SDS011;5946;51.770;8.548;2023-11-19T04:22:46;11.43;;;6.67;;
11777;SDS011;5946;51.770;8.548;2023-11-19T04:25:12;16.77;;;6.63;;
11777;SDS011;5946;51.770;8.548;2023-11-19T04:27:40;11.00;;;6.37;;
11777;SDS011;5946;51.770;8.548;2023-11-19T04:30:06;14.77;;;7.00;;
11777;SDS011;5946;51.770;8.548;2023-11-19T04:32:35;13.67;;;6.37;;
11777;SDS011;5946;51.770;8.548;2023-11-19T04:35:01;20.33;;;7.33;;
11777;SDS011;5946;51.770;8.548;2023-11-19T04:37:27;18.50;;;7.87;;
11777;SDS011;5946;51.770;8.548;2023-11-19T04:39:53;16.90;;;6.93;;
11777;SDS011;5946;51.770;8.548;2023-11-19T04:42:19;16.00;;;7.20;;
11777;SDS011;5946;51.770;8.548;2023-11-19T04:44:45;12.67;;;6.70;;
11777;SDS011;5946;51.770;8.548;2023-11-19T04:47:10;16.30;;;7.30;;
11777;SDS011;5946;51.770;8.548;2023-11-19T04:49:39;16.03;;;7.17;;
11777;SDS011;5946;51.770;8.548;2023-11-19T04:52:07;15.33;;;7.30;;
11777;SDS011;5946;51.770;8.548;2023-11-19T04:54:33;15.27;;;7.20;;
11777;SDS011;5946;51.770;8.548;2023-11-19T04:56:59;19.57;;;7.37;;
11777;SDS011;5946;51.770;8.548;2023-11-19T04:59:25;20.20;;;7.07;;
11777;SDS011;5946;51.770;8.548;2023-11-19T05:01:52;24.00;;;7.57;;
11777;SDS011;5946;51.770;8.548;2023-11-19T05:04:18;17.13;;;6.53;;
11777;SDS011;5946;51.770;8.548;2023-11-19T05:06:44;17.67;;;6.10;;
11777;SDS011;5946;51.770;8.548;2023-11-19T05:09:10;16.13;;;6.07;;
11777;SDS011;5946;51.770;8.548;2023-11-19T05:11:38;21.37;;;6.43;;
11777;SDS011;5946;51.770;8.548;2023-11-19T05:14:05;19.47;;;6.37;;
11777;SDS011;5946;51.770;8.548;2023-11-19T05:16:31;22.47;;;6.70;;
11777;SDS011;5946;51.770;8.548;2023-11-19T05:18:57;20.37;;;6.50;;
11777;SDS011;5946;51.770;8.548;2023-11-19T05:21:23;19.20;;;6.93;;
11777;SDS011;5946;51.770;8.548;2023-11-19T05:23:49;25.23;;;7.17;;
11777;SDS011;5946;51.770;8.548;2023-11-19T05:26:19;20.03;;;6.47;;
11777;SDS011;5946;51.770;8.548;2023-11-19T05:28:45;23.77;;;7.20;;
11777;SDS011;5946;51.770;8.548;2023-11-19T05:31:11;25.30;;;7.33;;
11777;SDS011;5946;51.770;8.548;2023-11-19T05:33:37;21.20;;;6.77;;
11777;SDS011;5946;51.770;8.548;2023-11-19T05:36:04;20.43;;;6.47;;
11777;SDS011;5946;51.770;8.548;2023-11-19T05:38:30;17.20;;;6.27;;
11777;SDS011;5946;51.770;8.548;2023-11-19T05:40:56;20.93;;;6.57;;
11777;SDS011;5946;51.770;8.548;2023-11-19T05:43:22;24.10;;;6.27;;
11777;SDS011;5946;51.770;8.548;2023-11-19T05:45:48;20.40;;;6.10;;
11777;SDS011;5946;51.770;8.548;2023-11-19T05:48:14;22.10;;;6.03;;
11777;SDS011;5946;51.770;8.548;2023-11-19T05:50:40;20.53;;;6.43;;
11777;SDS011;5946;51.770;8.548;2023-11-19T05:53:06;20.97;;;6.40;;
11777;SDS011;5946;51.770;8.548;2023-11-19T05:55:35;24.43;;;6.20;;
11777;SDS011;5946;51.770;8.548;2023-11-19T05:58:02;19.17;;;5.80;;
11777;SDS011;5946;51.770;8.548;2023-11-19T06:00:29;21.53;;;5.10;;
11777;SDS011;5946;51.770;8.548;2023-11-19T06:02:55;29.73;;;6.63;;
11777;SDS011;5946;51.770;8.548;2023-11-19T06:05:21;21.80;;;5.97;;
11777;SDS011;5946;51.770;8.548;2023-11-19T06:07:47;21.47;;;5.93;;
11777;SDS011;5946;51.770;8.548;2023-11-19T06:10:13;18.70;;;6.17;;
11777;SDS011;5946;51.770;8.548;2023-11-19T06:12:41;29.93;;;6.93;;
11777;SDS011;5946;51.770;8.548;2023-11-19T06:15:08;23.53;;;6.10;;
11777;SDS011;5946;51.770;8.548;2023-11-19T06:17:34;25.20;;;6.20;;
11777;SDS011;5946;51.770;8.548;2023-11-19T06:20:00;18.73;;;5.20;;
11777;SDS011;5946;51.770;8.548;2023-11-19T06:22:26;24.10;;;6.13;;
11777;SDS011;5946;51.770;8.548;2023-11-19T06:24:52;16.93;;;5.80;;
11777;SDS011;5946;51.770;8.548;2023-11-19T06:27:18;24.03;;;6.43;;
11777;SDS011;5946;51.770;8.548;2023-11-19T06:29:44;26.77;;;6.90;;
11777;SDS011;5946;51.770;8.548;2023-11-19T06:32:10;29.27;;;5.73;;
11777;SDS011;5946;51.770;8.548;2023-11-19T06:34:36;24.07;;;5.27;;
11777;SDS011;5946;51.770;8.548;2023-11-19T06:37:03;26.90;;;5.27;;
11777;SDS011;5946;51.770;8.548;2023-11-19T06:39:29;35.50;;;5.53;;
11777;SDS011;5946;51.770;8.548;2023-11-19T06:41:55;28.97;;;5.93;;
11777;SDS011;5946;51.770;8.548;2023-11-19T06:44:21;22.90;;;5.57;;
11777;SDS011;5946;51.770;8.548;2023-11-19T06:46:48;28.83;;;5.63;;
11777;SDS011;5946;51.770;8.548;2023-11-19T06:49:14;28.43;;;6.20;;
11777;SDS011;5946;51.770;8.548;2023-11-19T06:51:41;19.90;;;4.97;;
11777;SDS011;5946;51.770;8.548;2023-11-19T06:54:08;26.73;;;5.70;;
11777;SDS011;5946;51.770;8.548;2023-11-19T06:56:34;23.97;;;5.43;;
11777;SDS011;5946;51.770;8.548;2023-11-19T06:59:01;23.50;;;5.70;;
11777;SDS011;5946;51.770;8.548;2023-11-19T07:01:27;30.73;;;5.87;;
11777;SDS011;5946;51.770;8.548;2023-11-19T07:48:02;28.23;;;5.83;;
11777;SDS011;5946;51.770;8.548;2023-11-19T07:50:31;28.03;;;6.13;;
11777;SDS011;5946;51.770;8.548;2023-11-19T07:52:57;24.07;;;5.90;;
11777;SDS011;5946;51.770;8.548;2023-11-19T07:55:23;25.20;;;4.97;;
11777;SDS011;5946;51.770;8.548;2023-11-19T07:57:49;25.57;;;5.90;;
11777;SDS011;5946;51.770;8.548;2023-11-19T08:00:15;24.27;;;6.00;;
11777;SDS011;5946;51.770;8.548;2023-11-19T08:02:41;33.03;;;6.37;;
11777;SDS011;5946;51.770;8.548;2023-11-19T08:05:07;27.67;;;6.17;;
11777;SDS011;5946;51.770;8.548;2023-11-19T08:07:33;24.53;;;6.43;;
11777;SDS011;5946;51.770;8.548;2023-11-19T08:09:59;26.33;;;5.70;;
11777;SDS011;5946;51.770;8.548;2023-11-19T08:12:25;26.30;;;5.43;;
11777;SDS011;5946;51.770;8.548;2023-11-19T08:14:51;24.80;;;5.23;;
11777;SDS011;5946;51.770;8.548;2023-11-19T08:17:17;25.80;;;6.37;;
11777;SDS011;5946;51.770;8.548;2023-11-19T08:19:43;29.00;;;6.03;;
11777;SDS011;5946;51.770;8.548;2023-11-19T08:22:09;27.07;;;5.93;;
11777;SDS011;5946;51.770;8.548;2023-11-19T08:24:35;26.80;;;6.03;;
11777;SDS011;5946;51.770;8.548;2023-11-19T08:27:01;26.47;;;6.40;;
11777;SDS011;5946;51.770;8.548;2023-11-19T08:29:27;21.03;;;5.73;;
11777;SDS011;5946;51.770;8.548;2023-11-19T08:31:53;21.77;;;5.60;;
11777;SDS011;5946;51.770;8.548;2023-11-19T08:34:19;25.37;;;5.43;;
11777;SDS011;5946;51.770;8.548;2023-11-19T08:36:45;24.13;;;5.80;;
11777;SDS011;5946;51.770;8.548;2023-11-19T08:39:11;26.73;;;5.57;;
11777;SDS011;5946;51.770;8.548;2023-11-19T08:41:38;24.73;;;5.93;;
11777;SDS011;5946;51.770;8.548;2023-11-19T08:44:06;29.07;;;6.53;;
11777;SDS011;5946;51.770;8.548;2023-11-19T08:46:32;25.53;;;5.60;;
11777;SDS011;5946;51.770;8.548;2023-11-19T08:48:58;32.37;;;5.90;;
11777;SDS011;5946;51.770;8.548;2023-11-19T08:51:25;25.70;;;6.37;;
11777;SDS011;5946;51.770;8.548;2023-11-19T08:53:51;26.67;;;6.00;;
11777;SDS011;5946;51.770;8.548;2023-11-19T08:56:17;26.83;;;5.97;;
11777;SDS011;5946;51.770;8.548;2023-11-19T08:58:43;27.90;;;6.07;;
11777;SDS011;5946;51.770;8.548;2023-11-19T09:01:09;32.20;;;6.13;;
11777;SDS011;5946;51.770;8.548;2023-11-19T09:03:35;25.10;;;5.97;;
11777;SDS011;5946;51.770;8.548;2023-11-19T09:06:01;26.13;;;6.17;;
11777;SDS011;5946;51.770;8.548;2023-11-19T09:08:28;30.77;;;6.33;;
11777;SDS011;5946;51.770;8.548;2023-11-19T09:10:54;26.73;;;6.03;;
11777;SDS011;5946;51.770;8.548;2023-11-19T09:13:20;29.73;;;6.20;;
11777;SDS011;5946;51.770;8.548;2023-11-19T09:15:46;28.77;;;6.10;;
11777;SDS011;5946;51.770;8.548;2023-11-19T09:18:12;24.87;;;5.93;;
11777;SDS011;5946;51.770;8.548;2023-11-19T09:20:38;28.83;;;6.90;;
11777;SDS011;5946;51.770;8.548;2023-11-19T09:23:04;25.23;;;5.63;;
11777;SDS011;5946;51.770;8.548;2023-11-19T09:25:31;25.87;;;5.50;;
11777;SDS011;5946;51.770;8.548;2023-11-19T09:27:57;23.43;;;6.07;;
11777;SDS011;5946;51.770;8.548;2023-11-19T09:30:23;29.60;;;6.23;;
11777;SDS011;5946;51.770;8.548;2023-11-19T09:32:49;28.93;;;5.50;;
11777;SDS011;5946;51.770;8.548;2023-11-19T09:35:15;19.73;;;5.37;;
11777;SDS011;5946;51.770;8.548;2023-11-19T09:37:41;25.10;;;6.03;;
11777;SDS011;5946;51.770;8.548;2023-11-19T09:40:07;28.30;;;6.23;;
11777;SDS011;5946;51.770;8.548;2023-11-19T09:42:43;28.30;;;6.07;;
11777;SDS011;5946;51.770;8.548;2023-11-19T09:45:12;25.13;;;5.87;;
11777;SDS011;5946;51.770;8.548;2023-11-19T09:47:40;26.60;;;6.20;;
11777;SDS011;5946;51.770;8.548;2023-11-19T09:50:06;26.47;;;5.97;;
11777;SDS011;5946;51.770;8.548;2023-11-19T09:52:32;20.30;;;5.40;;
11777;SDS011;5946;51.770;8.548;2023-11-19T09:54:58;30.13;;;6.53;;
11777;SDS011;5946;51.770;8.548;2023-11-19T09:57:24;25.30;;;6.10;;
11777;SDS011;5946;51.770;8.548;2023-11-19T09:59:50;27.37;;;5.63;;
11777;SDS011;5946;51.770;8.548;2023-11-19T10:02:17;26.73;;;5.37;;
11777;SDS011;5946;51.770;8.548;2023-11-19T10:04:44;18.07;;;5.43;;
11777;SDS011;5946;51.770;8.548;2023-11-19T10:07:12;29.60;;;6.60;;
11777;SDS011;5946;51.770;8.548;2023-11-19T10:09:38;24.13;;;5.67;;
11777;SDS011;5946;51.770;8.548;2023-11-19T10:12:04;24.77;;;5.30;;
11777;SDS011;5946;51.770;8.548;2023-11-19T10:14:30;24.23;;;5.13;;
11777;SDS011;5946;51.770;8.548;2023-11-19T10:16:58;25.87;;;5.97;;
11777;SDS011;5946;51.770;8.548;2023-11-19T10:19:29;22.30;;;6.07;;
11777;SDS011;5946;51.770;8.548;2023-11-19T10:21:55;28.83;;;5.70;;
11777;SDS011;5946;51.770;8.548;2023-11-19T10:24:33;30.50;;;5.67;;
11777;SDS011;5946;51.770;8.548;2023-11-19T10:26:59;27.33;;;6.00;;
11777;SDS011;5946;51.770;8.548;2023-11-19T10:29:29;28.17;;;6.03;;
11777;SDS011;5946;51.770;8.548;2023-11-19T10:31:58;31.57;;;6.00;;
11777;SDS011;5946;51.770;8.548;2023-11-19T10:34:25;24.37;;;5.97;;
11777;SDS011;5946;51.770;8.548;2023-11-19T10:36:51;31.80;;;6.33;;
11777;SDS011;5946;51.770;8.548;2023-11-19T10:39:17;28.10;;;6.30;;
11777;SDS011;5946;51.770;8.548;2023-11-19T10:41:43;27.97;;;5.73;;
11777;SDS011;5946;51.770;8.548;2023-11-19T10:44:09;29.63;;;6.37;;
11777;SDS011;5946;51.770;8.548;2023-11-19T10:46:36;29.57;;;6.20;;
11777;SDS011;5946;51.770;8.548;2023-11-19T10:49:03;32.57;;;5.83;;
11777;SDS011;5946;51.770;8.548;2023-11-19T10:51:29;27.83;;;5.70;;
11777;SDS011;5946;51.770;8.548;2023-11-19T10:53:57;26.17;;;6.13;;
11777;SDS011;5946;51.770;8.548;2023-11-19T10:56:27;28.63;;;6.13;;
11777;SDS011;5946;51.770;8.548;2023-11-19T10:58:55;34.13;;;6.30;;
11777;SDS011;5946;51.770;8.548;2023-11-19T11:01:24;26.53;;;6.03;;
11777;SDS011;5946;51.770;8.548;2023-11-19T11:03:51;28.93;;;6.17;;
11777;SDS011;5946;51.770;8.548;2023-11-19T11:06:19;30.13;;;12.57;;
11777;SDS011;5946;51.770;8.548;2023-11-19T11:08:46;27.37;;;6.83;;
11777;SDS011;5946;51.770;8.548;2023-11-19T11:11:13;27.37;;;5.50;;
11777;SDS011;5946;51.770;8.548;2023-11-19T11:13:46;30.00;;;6.43;;
11777;SDS011;5946;51.770;8.548;2023-11-19T11:16:14;27.43;;;6.00;;
11777;SDS011;5946;51.770;8.548;2023-11-19T11:18:41;34.10;;;6.30;;
11777;SDS011;5946;51.770;8.548;2023-11-19T11:21:08;28.83;;;6.53;;
11777;SDS011;5946;51.770;8.548;2023-11-19T11:29:05;25.50;;;5.77;;
11777;SDS011;5946;51.770;8.548;2023-11-19T11:34:41;28.33;;;5.27;;
11777;SDS011;5946;51.770;8.548;2023-11-19T11:37:18;27.90;;;5.27;;
11777;SDS011;5946;51.770;8.548;2023-11-19T11:39:45;34.53;;;6.70;;
11777;SDS011;5946;51.770;8.548;2023-11-19T11:45:05;26.97;;;5.83;;
11777;SDS011;5946;51.770;8.548;2023-11-19T11:57:51;28.57;;;5.97;;
11777;SDS011;5946;51.770;8.548;2023-11-19T12:01:00;22.50;;;4.97;;
11777;SDS011;5946;51.770;8.548;2023-11-19T12:03:07;24.37;;;5.20;;
11777;SDS011;5946;51.770;8.548;2023-11-19T12:05:43;26.80;;;5.70;;
11777;SDS011;5946;51.770;8.548;2023-11-19T12:08:10;25.13;;;5.83;;
11777;SDS011;5946;51.770;8.548;2023-11-19T12:10:46;27.10;;;6.33;;
11777;SDS011;5946;51.770;8.548;2023-11-19T12:13:13;34.77;;;6.50;;
11777;SDS011;5946;51.770;8.548;2023-11-19T12:18:24;24.23;;;5.20;;
11777;SDS011;5946;51.770;8.548;2023-11-19T12:20:50;28.17;;;5.40;;
11777;SDS011;5946;51.770;8.548;2023-11-19T12:23:16;26.77;;;6.40;;
11777;SDS011;5946;51.770;8.548;2023-11-19T12:25:42;24.93;;;5.53;;
11777;SDS011;5946;51.770;8.548;2023-11-19T12:28:13;29.17;;;6.97;;
11777;SDS011;5946;51.770;8.548;2023-11-19T12:30:41;26.67;;;5.50;;
11777;SDS011;5946;51.770;8.548;2023-11-19T12:33:07;25.37;;;5.63;;
11777;SDS011;5946;51.770;8.548;2023-11-19T12:35:38;22.23;;;4.70;;
11777;SDS011;5946;51.770;8.548;2023-11-19T12:38:04;32.13;;;5.73;;
11777;SDS011;5946;51.770;8.548;2023-11-19T12:40:31;22.53;;;5.43;;
11777;SDS011;5946;51.770;8.548;2023-11-19T12:42:57;26.17;;;5.40;;
11777;SDS011;5946;51.770;8.548;2023-11-19T12:45:35;31.90;;;6.23;;
11777;SDS011;5946;51.770;8.548;2023-11-19T12:48:05;26.53;;;5.47;;
11777;SDS011;5946;51.770;8.548;2023-11-19T12:50:49;26.33;;;5.90;;
11777;SDS011;5946;51.770;8.548;2023-11-19T12:53:16;18.90;;;5.00;;
11777;SDS011;5946;51.770;8.548;2023-11-19T12:55:43;23.57;;;5.00;;
11777;SDS011;5946;51.770;8.548;2023-11-19T12:58:09;27.97;;;5.53;;
11777;SDS011;5946;51.770;8.548;2023-11-19T13:00:35;24.17;;;4.87;;
11777;SDS011;5946;51.770;8.548;2023-11-19T13:03:01;25.90;;;5.17;;
11777;SDS011;5946;51.770;8.548;2023-11-19T13:08:04;27.50;;;5.10;;
11777;SDS011;5946;51.770;8.548;2023-11-19T13:10:31;26.80;;;4.73;;
11777;SDS011;5946;51.770;8.548;2023-11-19T13:13:01;22.77;;;5.10;;
11777;SDS011;5946;51.770;8.548;2023-11-19T13:15:27;27.60;;;4.83;;
11777;SDS011;5946;51.770;8.548;2023-11-19T13:17:53;21.47;;;5.07;;
11777;SDS011;5946;51.770;8.548;2023-11-19T13:20:19;22.43;;;5.37;;
11777;SDS011;5946;51.770;8.548;2023-11-19T13:22:59;31.50;;;5.70;;
11777;SDS011;5946;51.770;8.548;2023-11-19T13:25:28;22.93;;;5.40;;
11777;SDS011;5946;51.770;8.548;2023-11-19T13:27:55;23.87;;;5.63;;
11777;SDS011;5946;51.770;8.548;2023-11-19T13:30:21;21.37;;;4.70;;
11777;SDS011;5946;51.770;8.548;2023-11-19T13:32:47;28.27;;;5.93;;
11777;SDS011;5946;51.770;8.548;2023-11-19T13:35:14;26.10;;;6.70;;
11777;SDS011;5946;51.770;8.548;2023-11-19T13:37:40;28.60;;;6.87;;
11777;SDS011;5946;51.770;8.548;2023-11-19T13:40:06;27.10;;;5.40;;
11777;SDS011;5946;51.770;8.548;2023-11-19T13:42:34;20.90;;;4.60;;
11777;SDS011;5946;51.770;8.548;2023-11-19T13:45:00;31.80;;;5.60;;
11777;SDS011;5946;51.770;8.548;2023-11-19T13:47:28;24.87;;;5.43;;
11777;SDS011;5946;51.770;8.548;2023-11-19T13:49:54;18.77;;;4.70;;
11777;SDS011;5946;51.770;8.548;2023-11-19T13:52:20;30.23;;;5.93;;
11777;SDS011;5946;51.770;8.548;2023-11-19T13:54:46;22.97;;;4.83;;
11777;SDS011;5946;51.770;8.548;2023-11-19T13:57:12;27.87;;;6.10;;
11777;SDS011;5946;51.770;8.548;2023-11-19T13:59:41;26.10;;;6.23;;
11777;SDS011;5946;51.770;8.548;2023-11-19T14:02:07;23.53;;;6.30;;
11777;SDS011;5946;51.770;8.548;2023-11-19T14:04:33;24.17;;;5.90;;
11777;SDS011;5946;51.770;8.548;2023-11-19T14:06:59;21.43;;;4.47;;
11777;SDS011;5946;51.770;8.548;2023-11-19T14:09:25;23.50;;;5.43;;
11777;SDS011;5946;51.770;8.548;2023-11-19T14:11:51;24.83;;;5.67;;
11777;SDS011;5946;51.770;8.548;2023-11-19T14:14:17;16.50;;;4.07;;
11777;SDS011;5946;51.770;8.548;2023-11-19T14:16:43;28.77;;;6.30;;
11777;SDS011;5946;51.770;8.548;2023-11-19T14:19:10;19.70;;;5.17;;
11777;SDS011;5946;51.770;8.548;2023-11-19T14:21:36;21.13;;;4.93;;
11777;SDS011;5946;51.770;8.548;2023-11-19T14:24:02;25.03;;;5.80;;
11777;SDS011;5946;51.770;8.548;2023-11-19T14:26:28;18.73;;;5.03;;
11777;SDS011;5946;51.770;8.548;2023-11-19T14:28:54;19.53;;;4.53;;
11777;SDS011;5946;51.770;8.548;2023-11-19T14:31:20;17.33;;;4.17;;
11777;SDS011;5946;51.770;8.548;2023-11-19T14:33:46;16.37;;;5.03;;
11777;SDS011;5946;51.770;8.548;2023-11-19T14:36:13;15.50;;;3.53;;
11777;SDS011;5946;51.770;8.548;2023-11-19T14:38:39;16.67;;;4.50;;
11777;SDS011;5946;51.770;8.548;2023-11-19T14:41:05;18.97;;;4.43;;
11777;SDS011;5946;51.770;8.548;2023-11-19T14:43:32;21.63;;;5.13;;
11777;SDS011;5946;51.770;8.548;2023-11-19T14:45:58;25.63;;;4.70;;
11777;SDS011;5946;51.770;8.548;2023-11-19T14:48:24;14.97;;;4.00;;
11777;SDS011;5946;51.770;8.548;2023-11-19T14:50:50;16.87;;;4.70;;
11777;SDS011;5946;51.770;8.548;2023-11-19T14:53:17;18.57;;;4.20;;
11777;SDS011;5946;51.770;8.548;2023-11-19T14:55:43;17.37;;;4.70;;
11777;SDS011;5946;51.770;8.548;2023-11-19T14:58:09;14.13;;;4.23;;
11777;SDS011;5946;51.770;8.548;2023-11-19T15:00:35;19.93;;;4.90;;
11777;SDS011;5946;51.770;8.548;2023-11-19T15:03:01;17.70;;;4.20;;
11777;SDS011;5946;51.770;8.548;2023-11-19T15:05:27;18.83;;;4.13;;
11777;SDS011;5946;51.770;8.548;2023-11-19T15:07:54;22.70;;;4.83;;
11777;SDS011;5946;51.770;8.548;2023-11-19T15:10:20;17.50;;;4.30;;
11777;SDS011;5946;51.770;8.548;2023-11-19T15:12:46;16.33;;;4.07;;
11777;SDS011;5946;51.770;8.548;2023-11-19T15:15:12;24.07;;;5.00;;
11777;SDS011;5946;51.770;8.548;2023-11-19T15:17:39;20.83;;;4.53;;
11777;SDS011;5946;51.770;8.548;2023-11-19T15:20:05;19.23;;;4.53;;
11777;SDS011;5946;51.770;8.548;2023-11-19T15:22:31;20.73;;;4.53;;
11777;SDS011;5946;51.770;8.548;2023-11-19T15:24:57;17.87;;;3.73;;
11777;SDS011;5946;51.770;8.548;2023-11-19T15:27:23;21.20;;;5.00;;
11777;SDS011;5946;51.770;8.548;2023-11-19T15:29:49;20.83;;;4.30;;
11777;SDS011;5946;51.770;8.548;2023-11-19T15:32:15;21.17;;;4.53;;
11777;SDS011;5946;51.770;8.548;2023-11-19T15:34:41;21.20;;;4.70;;
11777;SDS011;5946;51.770;8.548;2023-11-19T15:37:07;24.07;;;4.33;;
11777;SDS011;5946;51.770;8.548;2023-11-19T15:39:33;20.07;;;4.20;;
11777;SDS011;5946;51.770;8.548;2023-11-19T15:42:01;19.23;;;4.73;;
11777;SDS011;5946;51.770;8.548;2023-11-19T15:44:27;19.93;;;4.13;;
11777;SDS011;5946;51.770;8.548;2023-11-19T15:46:54;18.13;;;4.47;;
11777;SDS011;5946;51.770;8.548;2023-11-19T15:49:20;22.03;;;4.97;;
11777;SDS011;5946;51.770;8.548;2023-11-19T15:51:46;20.00;;;4.33;;
11777;SDS011;5946;51.770;8.548;2023-11-19T15:54:12;19.70;;;4.97;;
11777;SDS011;5946;51.770;8.548;2023-11-19T15:56:38;20.13;;;4.40;;
11777;SDS011;5946;51.770;8.548;2023-11-19T15:59:04;19.07;;;4.13;;